createdAt,value
2023-02-19T00:00:53.105Z,13.33
2023-02-19T00:03:25.227Z,13.34
2023-02-19T00:05:57.228Z,13.32
2023-02-19T00:08:32.239Z,13.28
2023-02-19T00:11:12.069Z,13.24
2023-02-19T00:13:47.921Z,13.28
2023-02-19T00:16:28.630Z,13.13
2023-02-19T00:19:04.334Z,13.28
2023-02-19T00:21:36.289Z,13.27
2023-02-19T00:24:12.058Z,13.25
2023-02-19T00:26:45.984Z,13.24
2023-02-19T00:29:22.079Z,13.23
2023-02-19T00:31:54.075Z,13.24
2023-02-19T00:34:26.096Z,13.23
2023-02-19T00:36:58.126Z,13.13
2023-02-19T00:39:30.249Z,13.24
2023-02-19T00:42:02.387Z,13.23
2023-02-19T00:44:34.303Z,13.21
2023-02-19T00:47:06.521Z,13.22
2023-02-19T00:49:38.556Z,13.18
2023-02-19T00:52:10.446Z,13.20
2023-02-19T00:54:42.402Z,13.18
2023-02-19T00:57:14.325Z,13.19
2023-02-19T00:59:46.347Z,13.19
2023-02-19T01:02:18.344Z,13.22
2023-02-19T01:04:50.354Z,13.22
2023-02-19T01:07:22.296Z,13.20
2023-02-19T01:09:54.218Z,13.19
2023-02-19T01:12:28.107Z,13.00
2023-02-19T01:15:00.088Z,13.14
2023-02-19T01:17:32.034Z,13.15
2023-02-19T01:20:04.398Z,13.14
2023-02-19T01:22:36.335Z,13.12
2023-02-19T01:25:08.657Z,13.11
2023-02-19T01:27:40.580Z,13.11
2023-02-19T01:30:13.124Z,13.05
2023-02-19T01:32:45.352Z,13.08
2023-02-19T01:35:17.491Z,13.06
2023-02-19T01:37:49.498Z,13.02
2023-02-19T01:40:21.489Z,13.08
2023-02-19T01:42:53.431Z,13.11
2023-02-19T01:45:44.127Z,13.07
2023-02-19T01:48:27.556Z,13.05
2023-02-19T01:51:17.715Z,13.05
2023-02-19T01:53:57.947Z,13.05
2023-02-19T01:56:32.295Z,13.08
2023-02-19T01:59:06.843Z,13.05
2023-02-19T02:01:41.156Z,13.05
2023-02-19T02:04:15.412Z,13.01
2023-02-19T02:06:54.850Z,13.03
2023-02-19T02:09:49.445Z,13.06
2023-02-19T02:12:21.393Z,13.02
2023-02-19T02:14:53.326Z,12.90
2023-02-19T02:17:31.136Z,13.00
2023-02-19T02:20:12.556Z,12.98
2023-02-19T02:23:27.366Z,12.87
2023-02-19T02:27:19.584Z,12.92
2023-02-19T02:30:07.690Z,12.95
2023-02-19T02:33:14.764Z,12.95
2023-02-19T02:36:07.754Z,12.96
2023-02-19T02:38:44.324Z,12.96
2023-02-19T02:41:16.652Z,12.98
2023-02-19T02:43:48.643Z,12.87
2023-02-19T02:46:30.213Z,12.87
2023-02-19T02:49:17.341Z,12.78
2023-02-19T02:51:54.614Z,12.89
2023-02-19T02:54:52.390Z,12.91
2023-02-19T02:57:24.732Z,12.89
2023-02-19T02:59:57.124Z,12.88
2023-02-19T03:02:31.927Z,12.87
2023-02-19T03:05:27.370Z,12.83
2023-02-19T03:08:10.324Z,12.78
2023-02-19T03:11:24.709Z,12.76
2023-02-19T03:14:25.241Z,12.74
2023-02-19T03:17:27.476Z,12.70
2023-02-19T03:20:05.713Z,12.68
2023-02-19T03:22:41.783Z,12.68
2023-02-19T03:25:43.057Z,12.63
2023-02-19T03:28:19.851Z,12.58
2023-02-19T03:30:55.830Z,12.51
2023-02-19T03:33:30.454Z,12.58
2023-02-19T03:36:07.950Z,12.58
2023-02-19T03:38:44.159Z,12.61
2023-02-19T03:42:06.035Z,12.56
2023-02-19T03:45:21.609Z,12.52
2023-02-19T03:48:15.547Z,12.57
2023-02-19T03:51:13.125Z,12.53
2023-02-19T03:54:02.935Z,12.56
2023-02-19T03:56:56.093Z,12.57
2023-02-19T03:59:54.227Z,12.56
2023-02-19T04:02:54.394Z,12.58
2023-02-19T04:05:39.606Z,12.58
2023-02-19T04:08:23.541Z,12.53
2023-02-19T04:10:59.229Z,12.58
2023-02-19T04:13:38.534Z,12.54
2023-02-19T04:16:22.472Z,12.49
2023-02-19T04:19:07.893Z,12.46
2023-02-19T04:21:42.211Z,12.35
2023-02-19T04:24:32.083Z,12.44
2023-02-19T04:27:06.324Z,12.46
2023-02-19T04:29:39.268Z,12.45
2023-02-19T04:32:13.558Z,12.42
2023-02-19T04:34:45.730Z,12.45
2023-02-19T04:37:17.695Z,12.44
2023-02-19T04:39:49.662Z,12.45
2023-02-19T04:42:21.740Z,12.44
2023-02-19T04:44:53.768Z,12.44
2023-02-19T04:47:25.825Z,12.45
2023-02-19T04:49:57.773Z,12.44
2023-02-19T04:52:29.764Z,12.39
2023-02-19T04:55:01.906Z,12.40
2023-02-19T04:57:34.531Z,12.37
2023-02-19T05:00:08.239Z,12.35
2023-02-19T05:02:40.189Z,12.32
2023-02-19T05:05:12.146Z,12.32
2023-02-19T05:07:44.108Z,12.31
2023-02-19T05:10:16.231Z,12.30
2023-02-19T05:12:48.214Z,12.30
2023-02-19T05:15:20.143Z,12.25
2023-02-19T05:17:52.077Z,12.23
2023-02-19T05:20:24.046Z,12.22
2023-02-19T05:22:56.122Z,12.25
2023-02-19T05:25:28.024Z,12.25
2023-02-19T05:28:17.051Z,12.24
2023-02-19T05:30:52.506Z,12.23
2023-02-19T05:33:26.220Z,12.21
2023-02-19T05:35:58.389Z,12.24
2023-02-19T05:38:30.315Z,12.20
2023-02-19T05:41:11.052Z,12.13
2023-02-19T05:43:46.181Z,12.17
2023-02-19T05:46:22.387Z,12.20
2023-02-19T05:48:55.381Z,12.20
2023-02-19T05:51:28.097Z,12.22
2023-02-19T05:54:00.000Z,12.17
2023-02-19T05:56:42.886Z,12.23
2023-02-19T05:59:23.233Z,12.20
2023-02-19T06:01:55.834Z,12.17
2023-02-19T06:04:27.798Z,12.15
2023-02-19T06:06:59.738Z,12.18
2023-02-19T06:09:32.381Z,12.18
2023-02-19T06:12:04.710Z,12.12
2023-02-19T06:14:36.633Z,12.12
2023-02-19T06:17:08.553Z,12.04
2023-02-19T06:19:40.508Z,11.98
2023-02-19T06:22:15.650Z,12.01
2023-02-19T06:24:48.408Z,12.00
2023-02-19T06:27:20.461Z,11.99
2023-02-19T06:29:52.354Z,12.03
2023-02-19T06:32:24.492Z,12.02
2023-02-19T06:34:56.538Z,11.99
2023-02-19T06:37:29.275Z,11.90
2023-02-19T06:40:01.347Z,12.05
2023-02-19T06:42:33.402Z,12.05
2023-02-19T06:45:06.082Z,12.09
2023-02-19T06:47:38.067Z,12.10
2023-02-19T06:50:10.159Z,12.06
2023-02-19T06:52:42.136Z,12.07
2023-02-19T06:55:14.212Z,12.10
2023-02-19T06:57:46.278Z,12.10
2023-02-19T07:00:18.608Z,12.10
2023-02-19T07:02:56.453Z,11.98
2023-02-19T07:05:28.446Z,12.11
2023-02-19T07:08:00.396Z,12.09
2023-02-19T07:10:32.306Z,12.13
2023-02-19T07:13:04.599Z,12.15
2023-02-19T07:15:36.556Z,12.14
2023-02-19T07:18:10.597Z,12.13
2023-02-19T07:20:42.527Z,12.16
2023-02-19T07:23:14.470Z,12.12
2023-02-19T07:25:46.804Z,12.13
2023-02-19T07:28:18.794Z,12.09
2023-02-19T07:30:50.743Z,12.16
2023-02-19T07:33:22.723Z,12.14
2023-02-19T07:35:54.631Z,12.11
2023-02-19T07:38:27.288Z,12.05
2023-02-19T07:41:04.375Z,12.04
2023-02-19T07:43:38.601Z,12.04
2023-02-19T07:46:13.706Z,11.97
2023-02-19T07:48:46.502Z,12.01
2023-02-19T07:51:20.621Z,12.03
2023-02-19T07:53:52.645Z,12.03
2023-02-19T07:56:24.546Z,12.03
2023-02-19T07:58:56.481Z,12.06
2023-02-19T08:01:46.801Z,12.02
2023-02-19T08:04:18.957Z,11.96
2023-02-19T08:06:53.233Z,12.02
2023-02-19T08:09:25.162Z,12.04
2023-02-19T08:12:15.456Z,12.01
2023-02-19T08:14:47.319Z,11.98
2023-02-19T08:17:19.291Z,11.99
2023-02-19T08:19:51.234Z,11.77
2023-02-19T08:22:23.133Z,11.93
2023-02-19T08:24:55.053Z,12.06
2023-02-19T08:27:27.017Z,12.06
2023-02-19T08:29:58.958Z,12.07
2023-02-19T08:32:30.996Z,12.08
2023-02-19T08:35:02.921Z,12.09
2023-02-19T08:37:34.862Z,12.11
2023-02-19T08:40:07.060Z,12.07
2023-02-19T08:42:39.579Z,12.05
2023-02-19T08:45:11.679Z,12.06
2023-02-19T08:47:43.936Z,12.06
2023-02-19T08:50:15.926Z,12.09
2023-02-19T08:52:48.052Z,12.08
2023-02-19T08:55:20.486Z,12.16
2023-02-19T08:57:52.817Z,12.19
2023-02-19T09:00:25.120Z,12.26
2023-02-19T09:02:58.711Z,12.28
2023-02-19T09:05:30.635Z,12.31
2023-02-19T09:08:02.571Z,12.26
2023-02-19T09:10:34.625Z,12.26
2023-02-19T09:13:06.639Z,12.29
2023-02-19T09:15:39.305Z,12.33
2023-02-19T09:18:11.251Z,12.36
2023-02-19T09:20:43.178Z,12.38
2023-02-19T09:23:15.102Z,12.29
2023-02-19T09:25:47.099Z,12.38
2023-02-19T09:28:19.346Z,12.38
2023-02-19T09:30:51.329Z,12.39
2023-02-19T09:33:23.440Z,12.37
2023-02-19T09:35:59.697Z,12.31
2023-02-19T09:38:31.661Z,12.42
2023-02-19T09:41:46.551Z,12.41
2023-02-19T09:44:41.509Z,12.43
2023-02-19T09:47:21.544Z,12.44
2023-02-19T09:50:12.846Z,12.44
2023-02-19T09:53:10.247Z,12.50
2023-02-19T09:55:44.997Z,12.60
2023-02-19T09:58:35.181Z,12.57
2023-02-19T10:01:12.928Z,12.61
2023-02-19T10:03:48.537Z,12.63
2023-02-19T10:06:24.118Z,12.58
2023-02-19T10:09:22.655Z,12.53
2023-02-19T10:11:56.750Z,12.50
2023-02-19T10:14:41.877Z,12.56
2023-02-19T10:17:31.907Z,12.61
2023-02-19T10:20:04.774Z,12.68
2023-02-19T10:22:38.340Z,12.63
2023-02-19T10:25:16.626Z,12.68
2023-02-19T10:27:49.389Z,12.67
2023-02-19T10:30:30.264Z,12.66
2023-02-19T10:33:15.023Z,12.60
2023-02-19T10:36:16.020Z,12.66
2023-02-19T10:38:48.358Z,12.69
2023-02-19T10:41:24.968Z,12.67
2023-02-19T10:44:22.244Z,12.66
2023-02-19T10:46:59.179Z,12.69
2023-02-19T10:49:43.417Z,12.64
2023-02-19T10:52:30.356Z,12.66
2023-02-19T10:55:28.374Z,12.69
2023-02-19T10:58:27.720Z,12.71
2023-02-19T11:01:25.760Z,12.75
2023-02-19T11:04:18.587Z,12.83
2023-02-19T11:06:50.899Z,12.90
2023-02-19T11:09:30.990Z,12.91
2023-02-19T11:12:05.078Z,12.90
2023-02-19T11:14:37.113Z,12.88
2023-02-19T11:17:26.416Z,12.88
2023-02-19T11:20:09.942Z,12.90
2023-02-19T11:22:49.190Z,12.92
2023-02-19T11:25:25.845Z,12.91
2023-02-19T11:28:08.349Z,12.93
2023-02-19T11:30:46.305Z,13.00
2023-02-19T11:33:20.841Z,13.08
2023-02-19T11:36:15.984Z,13.11
2023-02-19T11:38:47.967Z,13.16
2023-02-19T11:41:28.753Z,13.20
2023-02-19T11:44:13.074Z,13.19
2023-02-19T11:46:59.689Z,13.20
2023-02-19T11:49:49.063Z,13.18
2023-02-19T11:52:41.167Z,13.22
2023-02-19T11:55:31.589Z,13.17
2023-02-19T11:58:54.486Z,13.10
2023-02-19T12:02:02.915Z,13.03
2023-02-19T12:05:18.888Z,13.10
2023-02-19T12:08:10.367Z,13.31
2023-02-19T12:10:56.994Z,13.55
2023-02-19T12:14:03.301Z,13.62
2023-02-19T12:17:03.335Z,13.46
2023-02-19T12:20:44.966Z,13.42
2023-02-19T12:23:35.329Z,13.49
2023-02-19T12:26:24.915Z,13.52
2023-02-19T12:29:11.134Z,13.59
2023-02-19T12:31:52.426Z,13.58
2023-02-19T12:35:01.915Z,13.51
2023-02-19T12:38:11.220Z,13.45
2023-02-19T12:41:15.624Z,13.56
2023-02-19T12:44:09.492Z,13.62
2023-02-19T12:46:53.367Z,13.65
2023-02-19T12:49:42.316Z,13.69
2023-02-19T12:52:25.370Z,14.06
2023-02-19T12:55:25.907Z,14.30
2023-02-19T12:58:04.451Z,14.38
2023-02-19T13:00:45.101Z,14.30
2023-02-19T13:03:35.568Z,14.12
2023-02-19T13:06:27.823Z,13.91
2023-02-19T13:09:33.496Z,13.81
2023-02-19T13:12:23.416Z,13.76
2023-02-19T13:15:03.484Z,13.67
2023-02-19T13:17:48.961Z,13.59
2023-02-19T13:20:39.202Z,13.56
2023-02-19T13:23:43.681Z,13.59
2023-02-19T13:26:40.100Z,13.51
2023-02-19T13:29:53.479Z,13.48
2023-02-19T13:33:05.396Z,13.50
2023-02-19T13:36:06.015Z,13.47
2023-02-19T13:38:46.280Z,13.44
2023-02-19T13:41:41.489Z,13.36
2023-02-19T13:44:24.966Z,13.29
2023-02-19T13:46:57.903Z,13.29
2023-02-19T13:49:29.882Z,13.24
2023-02-19T13:52:29.228Z,13.17
2023-02-19T13:55:52.451Z,13.05
2023-02-19T13:58:33.794Z,12.96
2023-02-19T14:01:11.968Z,12.87
2023-02-19T14:04:06.544Z,12.78
2023-02-19T14:07:03.065Z,12.68
2023-02-19T14:09:37.866Z,12.63
2023-02-19T14:12:10.253Z,12.54
2023-02-19T14:14:44.211Z,12.51
2023-02-19T14:17:28.022Z,12.43
2023-02-19T14:20:08.946Z,12.39
2023-02-19T14:22:47.393Z,12.33
2023-02-19T14:25:30.934Z,12.33
2023-02-19T14:28:36.183Z,12.32
2023-02-19T14:31:29.113Z,12.27
2023-02-19T14:34:14.426Z,12.18
2023-02-19T14:37:01.660Z,12.14
2023-02-19T14:39:40.346Z,12.15
2023-02-19T14:42:24.596Z,12.17
2023-02-19T14:45:02.802Z,12.23
2023-02-19T14:47:37.455Z,12.23
2023-02-19T14:50:31.509Z,12.19
2023-02-19T14:53:08.878Z,12.21
2023-02-19T14:55:42.916Z,12.24
2023-02-19T14:58:29.399Z,12.23
2023-02-19T15:01:01.402Z,12.15
2023-02-19T15:03:37.637Z,12.10
2023-02-19T15:06:17.572Z,12.20
2023-02-19T15:08:57.572Z,12.07
2023-02-19T15:11:32.516Z,12.04
2023-02-19T15:14:08.157Z,12.02
2023-02-19T15:16:40.559Z,11.82
2023-02-19T15:19:17.127Z,12.01
2023-02-19T15:21:50.334Z,12.02
2023-02-19T15:24:22.895Z,12.03
2023-02-19T15:26:56.215Z,11.97
2023-02-19T15:29:28.744Z,11.96
2023-02-19T15:32:02.387Z,11.93
2023-02-19T15:34:34.429Z,11.92
2023-02-19T15:37:12.825Z,11.93
2023-02-19T15:39:48.243Z,11.90
2023-02-19T15:42:38.618Z,11.87
2023-02-19T15:45:28.234Z,11.84
2023-02-19T15:48:22.988Z,11.80
2023-02-19T15:51:08.302Z,11.75
2023-02-19T15:53:56.473Z,11.78
2023-02-19T15:56:36.551Z,11.80
2023-02-19T15:59:38.504Z,11.77
2023-02-19T16:02:16.030Z,11.84
2023-02-19T16:04:48.128Z,11.82
2023-02-19T16:07:28.527Z,11.74
2023-02-19T16:10:26.561Z,11.67
2023-02-19T16:13:04.889Z,11.69
2023-02-19T16:15:39.691Z,11.75
2023-02-19T16:18:15.257Z,11.81
2023-02-19T16:20:48.015Z,11.78
2023-02-19T16:23:24.401Z,11.85
2023-02-19T16:26:03.279Z,11.86
2023-02-19T16:28:40.328Z,11.78
2023-02-19T16:31:14.014Z,11.72
2023-02-19T16:33:48.683Z,11.63
2023-02-19T16:36:27.317Z,11.53
2023-02-19T16:39:07.879Z,11.44
2023-02-19T16:41:39.819Z,11.36
2023-02-19T16:44:20.925Z,11.29
2023-02-19T16:47:00.449Z,11.26
2023-02-19T16:49:32.953Z,11.24
2023-02-19T16:52:05.158Z,11.29
2023-02-19T16:54:37.077Z,11.31
2023-02-19T16:57:09.129Z,11.32
2023-02-19T16:59:41.129Z,11.34
2023-02-19T17:02:22.287Z,11.63
2023-02-19T17:04:55.865Z,11.41
2023-02-19T17:07:27.975Z,11.37
2023-02-19T17:09:59.907Z,11.42
2023-02-19T17:12:31.953Z,11.34
2023-02-19T17:15:04.657Z,11.27
2023-02-19T17:17:36.614Z,11.30
2023-02-19T17:20:17.691Z,11.27
2023-02-19T17:22:49.857Z,11.27
2023-02-19T17:25:22.088Z,11.24
2023-02-19T17:27:54.107Z,11.21
2023-02-19T17:30:31.653Z,11.20
2023-02-19T17:33:03.801Z,11.18
2023-02-19T17:35:35.801Z,11.29
2023-02-19T17:38:14.005Z,11.27
2023-02-19T17:40:46.123Z,11.22
2023-02-19T17:43:18.079Z,11.09
2023-02-19T17:45:50.416Z,11.16
2023-02-19T17:48:22.380Z,11.15
2023-02-19T17:50:54.353Z,11.17
2023-02-19T17:53:26.277Z,11.18
2023-02-19T17:55:58.286Z,11.19
2023-02-19T17:58:30.259Z,11.14
2023-02-19T18:01:02.237Z,11.04
2023-02-19T18:03:34.223Z,11.10
2023-02-19T18:06:06.676Z,11.06
2023-02-19T18:08:38.966Z,11.10
2023-02-19T18:11:11.082Z,11.07
2023-02-19T18:13:43.289Z,11.07
2023-02-19T18:16:18.300Z,11.03
2023-02-19T18:18:50.753Z,10.97
2023-02-19T18:21:24.326Z,10.97
2023-02-19T18:23:56.229Z,10.98
2023-02-19T18:26:28.298Z,10.99
2023-02-19T18:29:01.016Z,11.02
2023-02-19T18:31:34.144Z,11.08
2023-02-19T18:34:11.744Z,11.02
2023-02-19T18:36:48.470Z,11.00
2023-02-19T18:39:20.601Z,10.94
2023-02-19T18:41:53.052Z,10.96
2023-02-19T18:44:25.599Z,10.98
2023-02-19T18:46:57.607Z,10.98
2023-02-19T18:49:29.700Z,10.99
2023-02-19T18:52:01.970Z,10.92
2023-02-19T18:54:33.965Z,10.89
2023-02-19T18:57:07.506Z,10.88
2023-02-19T18:59:43.377Z,10.86
2023-02-19T19:02:16.169Z,10.86
2023-02-19T19:04:54.269Z,10.78
2023-02-19T19:07:26.263Z,10.69
2023-02-19T19:09:58.256Z,10.66
2023-02-19T19:12:30.330Z,10.63
2023-02-19T19:15:02.386Z,10.62
2023-02-19T19:17:34.384Z,10.63
2023-02-19T19:20:07.522Z,10.54
2023-02-19T19:22:39.557Z,10.59
2023-02-19T19:25:11.940Z,10.58
2023-02-19T19:27:43.842Z,10.55
2023-02-19T19:30:16.400Z,10.55
2023-02-19T19:32:52.619Z,10.52
2023-02-19T19:35:24.665Z,10.53
2023-02-19T19:37:56.643Z,10.49
2023-02-19T19:40:28.684Z,10.48
2023-02-19T19:43:00.673Z,10.45
2023-02-19T19:45:32.624Z,10.44
2023-02-19T19:48:06.303Z,10.48
2023-02-19T19:50:38.303Z,10.49
2023-02-19T19:53:10.306Z,10.46
2023-02-19T19:55:42.280Z,10.47
2023-02-19T19:58:14.297Z,10.42
2023-02-19T20:00:46.609Z,10.47
2023-02-19T20:03:19.734Z,10.45
2023-02-19T20:05:51.696Z,10.40
2023-02-19T20:08:23.725Z,10.38
2023-02-19T20:10:55.635Z,10.40
2023-02-19T20:13:30.516Z,10.38
2023-02-19T20:16:02.709Z,10.40
2023-02-19T20:18:34.954Z,10.39
2023-02-19T20:21:11.232Z,10.36
2023-02-19T20:23:43.325Z,10.32
2023-02-19T20:26:27.046Z,10.27
2023-02-19T20:28:59.222Z,10.26
2023-02-19T20:31:31.312Z,10.34
2023-02-19T20:34:03.657Z,10.33
2023-02-19T20:36:47.114Z,10.31
2023-02-19T20:39:21.996Z,10.32
2023-02-19T20:41:54.007Z,10.33
2023-02-19T20:44:28.905Z,10.32
2023-02-19T20:47:01.505Z,10.32
2023-02-19T20:49:34.432Z,10.30
2023-02-19T20:52:07.871Z,10.23
2023-02-19T20:54:39.807Z,10.26
2023-02-19T20:57:14.139Z,10.30
2023-02-19T20:59:46.491Z,10.27
2023-02-19T21:02:27.897Z,10.27
2023-02-19T21:05:00.876Z,10.22
2023-02-19T21:07:32.801Z,10.20
2023-02-19T21:10:05.454Z,10.16
2023-02-19T21:12:37.552Z,10.15
2023-02-19T21:15:09.814Z,10.11
2023-02-19T21:17:46.780Z,10.06
2023-02-19T21:20:18.967Z,10.00
2023-02-19T21:22:51.006Z,9.99
2023-02-19T21:25:23.098Z,9.98
2023-02-19T21:27:55.012Z,9.92
2023-02-19T21:30:27.083Z,9.91
2023-02-19T21:32:59.068Z,9.87
2023-02-19T21:35:31.525Z,9.86
2023-02-19T21:38:03.768Z,9.82
2023-02-19T21:40:35.751Z,9.82
2023-02-19T21:43:07.647Z,9.77
2023-02-19T21:45:39.643Z,9.75
2023-02-19T21:48:11.784Z,9.73
2023-02-19T21:50:45.934Z,9.71
2023-02-19T21:53:17.915Z,9.74
2023-02-19T21:55:58.402Z,9.72
2023-02-19T21:58:30.789Z,9.70
2023-02-19T22:01:03.103Z,9.76
2023-02-19T22:03:35.090Z,9.76
2023-02-19T22:06:07.359Z,9.75
2023-02-19T22:08:39.283Z,9.69
2023-02-19T22:11:11.469Z,9.72
2023-02-19T22:13:43.473Z,9.71
2023-02-19T22:16:15.748Z,9.69
2023-02-19T22:18:59.430Z,9.64
2023-02-19T22:21:35.464Z,9.63
2023-02-19T22:24:07.648Z,9.62
2023-02-19T22:26:39.708Z,9.65
2023-02-19T22:29:15.299Z,9.61
2023-02-19T22:31:47.435Z,9.63
2023-02-19T22:34:19.653Z,9.58
2023-02-19T22:36:51.750Z,9.50
2023-02-19T22:39:26.968Z,9.58
2023-02-19T22:41:59.119Z,9.61
2023-02-19T22:44:31.061Z,9.58
2023-02-19T22:47:03.025Z,9.58
2023-02-19T22:49:39.440Z,9.55
2023-02-19T22:52:13.096Z,9.57
2023-02-19T22:54:45.203Z,9.54
2023-02-19T22:57:17.118Z,9.53
2023-02-19T22:59:49.124Z,9.56
2023-02-19T23:02:21.100Z,9.51
2023-02-19T23:04:53.075Z,9.53
2023-02-19T23:07:25.184Z,9.50
2023-02-19T23:09:57.110Z,9.43
2023-02-19T23:12:29.055Z,9.42
2023-02-19T23:15:00.979Z,9.37
2023-02-19T23:17:33.288Z,9.31
2023-02-19T23:20:06.116Z,9.29
2023-02-19T23:22:38.043Z,9.26
2023-02-19T23:25:10.048Z,9.25
2023-02-19T23:27:42.024Z,9.25
2023-02-19T23:30:17.013Z,9.21
2023-02-19T23:32:48.978Z,9.22
2023-02-19T23:35:21.019Z,9.21
2023-02-19T23:37:53.117Z,9.21
2023-02-19T23:40:25.078Z,9.21
2023-02-19T23:42:57.010Z,9.24
2023-02-19T23:45:29.947Z,9.25
2023-02-19T23:48:01.891Z,9.23
2023-02-19T23:50:33.824Z,9.26
2023-02-19T23:53:05.997Z,9.25
2023-02-19T23:55:37.958Z,9.22
2023-02-19T23:58:10.003Z,9.13
